sensor_id;sensor_type;location;lat;lon;timestamp;pressure;altitude;pressure_sealevel;temperature;humidity
64551;BME280;74341;44.510;-123.270;2024-02-26T00:00:42;100548.81;;;12.03;85.45
64551;BME280;74341;44.510;-123.270;2024-02-26T00:03:08;100553.25;;;12.04;85.50
64551;BME280;74341;44.510;-123.270;2024-02-26T00:05:35;100552.22;;;12.05;85.16
64551;BME280;74341;44.510;-123.270;2024-02-26T00:08:01;100546.91;;;12.04;85.12
64551;BME280;74341;44.510;-123.270;2024-02-26T00:10:27;100540.97;;;12.00;84.79
64551;BME280;74341;44.510;-123.270;2024-02-26T00:12:53;100547.69;;;11.97;84.77
64551;BME280;74341;44.510;-123.270;2024-02-26T00:15:20;100541.94;;;11.92;84.96
64551;BME280;74341;44.510;-123.270;2024-02-26T00:17:46;100532.56;;;11.87;84.78
64551;BME280;74341;44.510;-123.270;2024-02-26T00:20:12;100544.25;;;11.80;84.97
64551;BME280;74341;44.510;-123.270;2024-02-26T00:22:39;100543.47;;;11.72;84.98
64551;BME280;74341;44.510;-123.270;2024-02-26T00:25:06;100542.53;;;11.65;84.66
64551;BME280;74341;44.510;-123.270;2024-02-26T00:27:32;100534.59;;;11.55;84.81
64551;BME280;74341;44.510;-123.270;2024-02-26T00:29:58;100532.41;;;11.50;84.94
64551;BME280;74341;44.510;-123.270;2024-02-26T00:32:24;100534.84;;;11.45;85.04
64551;BME280;74341;44.510;-123.270;2024-02-26T00:34:51;100531.81;;;11.40;85.07
64551;BME280;74341;44.510;-123.270;2024-02-26T00:37:17;100526.53;;;11.38;85.46
64551;BME280;74341;44.510;-123.270;2024-02-26T00:39:43;100527.94;;;11.34;85.28
64551;BME280;74341;44.510;-123.270;2024-02-26T00:42:10;100522.66;;;11.33;85.50
64551;BME280;74341;44.510;-123.270;2024-02-26T00:44:36;100528.72;;;11.28;85.08
64551;BME280;74341;44.510;-123.270;2024-02-26T00:47:03;100519.31;;;11.22;85.29
64551;BME280;74341;44.510;-123.270;2024-02-26T00:49:29;100522.81;;;11.16;84.91
64551;BME280;74341;44.510;-123.270;2024-02-26T00:51:55;100524.59;;;11.09;84.85
64551;BME280;74341;44.510;-123.270;2024-02-26T00:54:22;100525.31;;;11.03;84.84
64551;BME280;74341;44.510;-123.270;2024-02-26T00:56:48;100511.34;;;10.98;85.30
64551;BME280;74341;44.510;-123.270;2024-02-26T00:59:14;100515.28;;;10.95;85.41
64551;BME280;74341;44.510;-123.270;2024-02-26T01:01:40;100520.09;;;10.93;85.38
64551;BME280;74341;44.510;-123.270;2024-02-26T01:04:07;100510.75;;;10.88;85.28
64551;BME280;74341;44.510;-123.270;2024-02-26T01:06:33;100508.56;;;10.83;85.53
64551;BME280;74341;44.510;-123.270;2024-02-26T01:08:59;100504.84;;;10.76;85.20
64551;BME280;74341;44.510;-123.270;2024-02-26T01:11:26;100503.53;;;10.72;85.93
64551;BME280;74341;44.510;-123.270;2024-02-26T01:13:52;100501.50;;;10.65;85.95
64551;BME280;74341;44.510;-123.270;2024-02-26T01:16:23;100505.63;;;10.61;85.95
64551;BME280;74341;44.510;-123.270;2024-02-26T01:18:49;100499.19;;;10.54;86.45
64551;BME280;74341;44.510;-123.270;2024-02-26T01:21:15;100507.56;;;10.53;86.49
64551;BME280;74341;44.510;-123.270;2024-02-26T01:23:42;100510.66;;;10.50;86.88
64551;BME280;74341;44.510;-123.270;2024-02-26T01:26:08;100500.13;;;10.46;87.40
64551;BME280;74341;44.510;-123.270;2024-02-26T01:28:34;100500.47;;;10.43;87.52
64551;BME280;74341;44.510;-123.270;2024-02-26T01:31:00;100498.44;;;10.37;87.44
64551;BME280;74341;44.510;-123.270;2024-02-26T01:33:27;100495.22;;;10.34;87.76
64551;BME280;74341;44.510;-123.270;2024-02-26T01:35:53;100493.00;;;10.29;88.35
64551;BME280;74341;44.510;-123.270;2024-02-26T01:38:19;100489.28;;;10.22;88.70
64551;BME280;74341;44.510;-123.270;2024-02-26T01:40:45;100482.47;;;10.18;88.39
64551;BME280;74341;44.510;-123.270;2024-02-26T01:43:12;100477.38;;;10.15;88.36
64551;BME280;74341;44.510;-123.270;2024-02-26T01:45:38;100463.41;;;10.09;88.87
64551;BME280;74341;44.510;-123.270;2024-02-26T01:48:05;100466.16;;;10.01;89.39
64551;BME280;74341;44.510;-123.270;2024-02-26T01:50:31;100475.59;;;9.99;89.14
64551;BME280;74341;44.510;-123.270;2024-02-26T01:53:00;100471.31;;;9.96;89.18
64551;BME280;74341;44.510;-123.270;2024-02-26T01:55:27;100478.66;;;9.96;89.01
64551;BME280;74341;44.510;-123.270;2024-02-26T01:57:53;100473.91;;;9.89;89.15
64551;BME280;74341;44.510;-123.270;2024-02-26T02:00:21;100469.47;;;9.88;88.79
64551;BME280;74341;44.510;-123.270;2024-02-26T02:02:48;100471.88;;;9.83;89.42
64551;BME280;74341;44.510;-123.270;2024-02-26T02:05:16;100474.97;;;9.80;88.96
64551;BME280;74341;44.510;-123.270;2024-02-26T02:07:45;100479.44;;;9.73;89.90
64551;BME280;74341;44.510;-123.270;2024-02-26T02:10:12;100476.88;;;9.71;89.19
64551;BME280;74341;44.510;-123.270;2024-02-26T02:12:38;100473.28;;;9.71;89.58
64551;BME280;74341;44.510;-123.270;2024-02-26T02:15:06;100477.91;;;9.70;89.13
64551;BME280;74341;44.510;-123.270;2024-02-26T02:17:33;100471.78;;;9.68;89.76
64551;BME280;74341;44.510;-123.270;2024-02-26T02:20:00;100461.38;;;9.64;90.32
64551;BME280;74341;44.510;-123.270;2024-02-26T02:22:27;100471.13;;;9.58;90.59
64551;BME280;74341;44.510;-123.270;2024-02-26T02:24:53;100478.81;;;9.55;90.61
64551;BME280;74341;44.510;-123.270;2024-02-26T02:27:20;100480.00;;;9.52;91.00
64551;BME280;74341;44.510;-123.270;2024-02-26T02:29:48;100475.75;;;9.49;90.75
64551;BME280;74341;44.510;-123.270;2024-02-26T02:32:15;100475.94;;;9.48;90.89
64551;BME280;74341;44.510;-123.270;2024-02-26T02:34:43;100476.97;;;9.47;90.79
64551;BME280;74341;44.510;-123.270;2024-02-26T02:37:11;100479.88;;;9.45;90.98
64551;BME280;74341;44.510;-123.270;2024-02-26T02:39:37;100485.50;;;9.44;90.92
64551;BME280;74341;44.510;-123.270;2024-02-26T02:42:04;100478.31;;;9.43;91.02
64551;BME280;74341;44.510;-123.270;2024-02-26T02:44:31;100479.38;;;9.42;91.43
64551;BME280;74341;44.510;-123.270;2024-02-26T02:46:58;100463.50;;;9.37;91.43
64551;BME280;74341;44.510;-123.270;2024-02-26T02:49:24;100473.75;;;9.35;91.37
64551;BME280;74341;44.510;-123.270;2024-02-26T02:51:50;100468.28;;;9.35;91.24
64551;BME280;74341;44.510;-123.270;2024-02-26T02:54:19;100465.72;;;9.33;90.93
64551;BME280;74341;44.510;-123.270;2024-02-26T02:56:45;100467.44;;;9.35;90.58
64551;BME280;74341;44.510;-123.270;2024-02-26T02:59:12;100467.63;;;9.33;90.93
64551;BME280;74341;44.510;-123.270;2024-02-26T03:01:38;100459.59;;;9.31;91.05
64551;BME280;74341;44.510;-123.270;2024-02-26T03:04:04;100450.09;;;9.27;91.24
64551;BME280;74341;44.510;-123.270;2024-02-26T03:06:31;100460.13;;;9.27;90.84
64551;BME280;74341;44.510;-123.270;2024-02-26T03:09:00;100455.88;;;9.24;91.60
64551;BME280;74341;44.510;-123.270;2024-02-26T03:11:26;100456.22;;;9.21;91.42
64551;BME280;74341;44.510;-123.270;2024-02-26T03:13:53;100452.81;;;9.19;91.38
64551;BME280;74341;44.510;-123.270;2024-02-26T03:16:20;100451.25;;;9.17;92.30
64551;BME280;74341;44.510;-123.270;2024-02-26T03:18:47;100449.75;;;9.14;92.09
64551;BME280;74341;44.510;-123.270;2024-02-26T03:21:13;100443.97;;;9.09;92.98
64551;BME280;74341;44.510;-123.270;2024-02-26T03:23:40;100446.69;;;9.09;92.81
64551;BME280;74341;44.510;-123.270;2024-02-26T03:26:06;100439.03;;;9.04;93.32
64551;BME280;74341;44.510;-123.270;2024-02-26T03:28:32;100443.78;;;9.02;92.84
64551;BME280;74341;44.510;-123.270;2024-02-26T03:31:00;100437.84;;;8.99;93.27
64551;BME280;74341;44.510;-123.270;2024-02-26T03:33:28;100445.34;;;8.97;93.24
64551;BME280;74341;44.510;-123.270;2024-02-26T03:35:54;100425.56;;;8.94;93.49
64551;BME280;74341;44.510;-123.270;2024-02-26T03:38:20;100423.88;;;8.93;93.49
64551;BME280;74341;44.510;-123.270;2024-02-26T03:40:47;100423.19;;;8.91;93.55
64551;BME280;74341;44.510;-123.270;2024-02-26T03:43:13;100423.19;;;8.91;93.34
64551;BME280;74341;44.510;-123.270;2024-02-26T03:45:40;100425.25;;;8.89;93.63
64551;BME280;74341;44.510;-123.270;2024-02-26T03:48:06;100409.06;;;8.88;93.83
64551;BME280;74341;44.510;-123.270;2024-02-26T03:50:32;100410.25;;;8.85;93.83
64551;BME280;74341;44.510;-123.270;2024-02-26T03:53:00;100404.13;;;8.83;94.32
64551;BME280;74341;44.510;-123.270;2024-02-26T03:55:26;100416.06;;;8.82;94.43
64551;BME280;74341;44.510;-123.270;2024-02-26T03:57:53;100413.50;;;8.81;93.78
64551;BME280;74341;44.510;-123.270;2024-02-26T04:00:19;100402.97;;;8.78;94.62
64551;BME280;74341;44.510;-123.270;2024-02-26T04:02:49;100409.41;;;8.77;94.68
64551;BME280;74341;44.510;-123.270;2024-02-26T04:05:16;100404.13;;;8.75;94.65
64551;BME280;74341;44.510;-123.270;2024-02-26T04:07:42;100401.75;;;8.72;94.48
64551;BME280;74341;44.510;-123.270;2024-02-26T04:10:12;100397.34;;;8.71;94.57
64551;BME280;74341;44.510;-123.270;2024-02-26T04:12:39;100399.19;;;8.70;95.15
64551;BME280;74341;44.510;-123.270;2024-02-26T04:15:08;100391.22;;;8.69;94.92
64551;BME280;74341;44.510;-123.270;2024-02-26T04:17:36;100397.00;;;8.66;94.90
64551;BME280;74341;44.510;-123.270;2024-02-26T04:20:03;100390.00;;;8.63;95.74
64551;BME280;74341;44.510;-123.270;2024-02-26T04:22:32;100392.91;;;8.62;95.80
64551;BME280;74341;44.510;-123.270;2024-02-26T04:24:59;100390.53;;;8.59;95.98
64551;BME280;74341;44.510;-123.270;2024-02-26T04:27:25;100399.88;;;8.56;95.61
64551;BME280;74341;44.510;-123.270;2024-02-26T04:29:51;100390.00;;;8.55;95.70
64551;BME280;74341;44.510;-123.270;2024-02-26T04:32:18;100397.16;;;8.56;95.48
64551;BME280;74341;44.510;-123.270;2024-02-26T04:34:47;100395.13;;;8.58;95.41
64551;BME280;74341;44.510;-123.270;2024-02-26T04:37:13;100386.97;;;8.58;95.27
64551;BME280;74341;44.510;-123.270;2024-02-26T04:39:40;100394.94;;;8.60;95.48
64551;BME280;74341;44.510;-123.270;2024-02-26T04:42:07;100388.47;;;8.61;95.29
64551;BME280;74341;44.510;-123.270;2024-02-26T04:44:34;100388.31;;;8.62;95.09
64551;BME280;74341;44.510;-123.270;2024-02-26T04:47:00;100386.44;;;8.63;95.20
64551;BME280;74341;44.510;-123.270;2024-02-26T04:49:27;100380.97;;;8.63;97.57
64551;BME280;74341;44.510;-123.270;2024-02-26T04:51:53;100387.47;;;8.62;96.34
64551;BME280;74341;44.510;-123.270;2024-02-26T04:54:20;100389.16;;;8.63;96.20
64551;BME280;74341;44.510;-123.270;2024-02-26T04:56:47;100390.19;;;8.62;96.29
64551;BME280;74341;44.510;-123.270;2024-02-26T04:59:13;100386.59;;;8.61;95.75
64551;BME280;74341;44.510;-123.270;2024-02-26T05:01:40;100388.47;;;8.61;96.19
64551;BME280;74341;44.510;-123.270;2024-02-26T05:04:07;100391.38;;;8.59;96.16
64551;BME280;74341;44.510;-123.270;2024-02-26T05:06:37;100394.25;;;8.57;95.93
64551;BME280;74341;44.510;-123.270;2024-02-26T05:09:04;100394.44;;;8.56;96.60
64551;BME280;74341;44.510;-123.270;2024-02-26T05:11:30;100397.50;;;8.53;97.33
64551;BME280;74341;44.510;-123.270;2024-02-26T05:13:57;100399.53;;;8.51;96.87
64551;BME280;74341;44.510;-123.270;2024-02-26T05:16:23;100400.75;;;8.48;97.21
64551;BME280;74341;44.510;-123.270;2024-02-26T05:18:52;100400.06;;;8.46;98.21
64551;BME280;74341;44.510;-123.270;2024-02-26T05:21:19;100389.31;;;8.45;98.07
64551;BME280;74341;44.510;-123.270;2024-02-26T05:23:45;100398.84;;;8.41;98.24
64551;BME280;74341;44.510;-123.270;2024-02-26T05:26:11;100388.09;;;8.39;98.74
64551;BME280;74341;44.510;-123.270;2024-02-26T05:28:38;100395.59;;;8.37;97.79
64551;BME280;74341;44.510;-123.270;2024-02-26T05:31:05;100396.63;;;8.36;98.81
64551;BME280;74341;44.510;-123.270;2024-02-26T05:33:32;100392.53;;;8.32;98.54
64551;BME280;74341;44.510;-123.270;2024-02-26T05:35:58;100390.97;;;8.29;98.89
64551;BME280;74341;44.510;-123.270;2024-02-26T05:38:29;100392.19;;;8.27;99.61
64551;BME280;74341;44.510;-123.270;2024-02-26T05:40:58;100388.78;;;8.25;99.93
64551;BME280;74341;44.510;-123.270;2024-02-26T05:43:27;100383.50;;;8.23;100.00
64551;BME280;74341;44.510;-123.270;2024-02-26T05:45:54;100377.38;;;8.21;100.00
64551;BME280;74341;44.510;-123.270;2024-02-26T05:48:21;100383.00;;;8.19;100.00
64551;BME280;74341;44.510;-123.270;2024-02-26T05:50:47;100386.03;;;8.16;100.00
64551;BME280;74341;44.510;-123.270;2024-02-26T05:53:14;100379.75;;;8.16;100.00
64551;BME280;74341;44.510;-123.270;2024-02-26T05:55:40;100388.09;;;8.14;100.00
64551;BME280;74341;44.510;-123.270;2024-02-26T05:58:07;100369.19;;;8.13;100.00
64551;BME280;74341;44.510;-123.270;2024-02-26T06:00:33;100384.69;;;8.12;100.00
64551;BME280;74341;44.510;-123.270;2024-02-26T06:03:00;100365.63;;;8.12;100.00
64551;BME280;74341;44.510;-123.270;2024-02-26T06:05:28;100366.63;;;8.11;100.00
64551;BME280;74341;44.510;-123.270;2024-02-26T06:07:54;100371.41;;;8.09;100.00
64551;BME280;74341;44.510;-123.270;2024-02-26T06:10:20;100359.66;;;8.09;100.00
64551;BME280;74341;44.510;-123.270;2024-02-26T06:12:47;100361.50;;;8.08;100.00
64551;BME280;74341;44.510;-123.270;2024-02-26T06:15:14;100352.66;;;8.06;100.00
64551;BME280;74341;44.510;-123.270;2024-02-26T06:17:40;100357.44;;;8.04;100.00
64551;BME280;74341;44.510;-123.270;2024-02-26T06:20:07;100353.88;;;8.04;100.00
64551;BME280;74341;44.510;-123.270;2024-02-26T06:22:37;100349.44;;;8.03;100.00
64551;BME280;74341;44.510;-123.270;2024-02-26T06:25:04;100352.16;;;8.03;100.00
64551;BME280;74341;44.510;-123.270;2024-02-26T06:27:30;100348.59;;;8.02;100.00
64551;BME280;74341;44.510;-123.270;2024-02-26T06:29:57;100343.31;;;8.00;100.00
64551;BME280;74341;44.510;-123.270;2024-02-26T06:32:23;100337.19;;;7.98;100.00
64551;BME280;74341;44.510;-123.270;2024-02-26T06:34:49;100340.06;;;7.97;100.00
64551;BME280;74341;44.510;-123.270;2024-02-26T06:37:16;100342.97;;;7.95;100.00
64551;BME280;74341;44.510;-123.270;2024-02-26T06:39:42;100341.44;;;7.93;100.00
64551;BME280;74341;44.510;-123.270;2024-02-26T06:42:09;100337.88;;;7.92;100.00
64551;BME280;74341;44.510;-123.270;2024-02-26T06:44:35;100331.72;;;7.90;100.00
64551;BME280;74341;44.510;-123.270;2024-02-26T06:47:01;100335.47;;;7.89;100.00
64551;BME280;74341;44.510;-123.270;2024-02-26T06:49:28;100329.19;;;7.89;100.00
64551;BME280;74341;44.510;-123.270;2024-02-26T06:51:54;100329.34;;;7.87;100.00
64551;BME280;74341;44.510;-123.270;2024-02-26T06:54:21;100322.88;;;7.88;100.00
64551;BME280;74341;44.510;-123.270;2024-02-26T06:56:47;100323.91;;;7.87;100.00
64551;BME280;74341;44.510;-123.270;2024-02-26T06:59:14;100326.81;;;7.86;100.00
64551;BME280;74341;44.510;-123.270;2024-02-26T07:01:41;100325.09;;;7.85;100.00
64551;BME280;74341;44.510;-123.270;2024-02-26T07:04:08;100337.84;;;7.84;100.00
64551;BME280;74341;44.510;-123.270;2024-02-26T07:06:36;100332.56;;;7.83;100.00
64551;BME280;74341;44.510;-123.270;2024-02-26T07:09:03;100343.47;;;7.83;100.00
64551;BME280;74341;44.510;-123.270;2024-02-26T07:11:29;100338.19;;;7.81;100.00
64551;BME280;74341;44.510;-123.270;2024-02-26T07:13:56;100344.47;;;7.81;100.00
64551;BME280;74341;44.510;-123.270;2024-02-26T07:16:22;100346.34;;;7.81;100.00
64551;BME280;74341;44.510;-123.270;2024-02-26T07:18:48;100340.91;;;7.81;100.00
64551;BME280;74341;44.510;-123.270;2024-02-26T07:21:15;100341.06;;;7.79;100.00
64551;BME280;74341;44.510;-123.270;2024-02-26T07:23:41;100341.22;;;7.78;100.00
64551;BME280;74341;44.510;-123.270;2024-02-26T07:26:07;100343.09;;;7.77;100.00
64551;BME280;74341;44.510;-123.270;2024-02-26T07:28:34;100340.53;;;7.76;100.00
64551;BME280;74341;44.510;-123.270;2024-02-26T07:31:00;100340.38;;;7.77;100.00
64551;BME280;74341;44.510;-123.270;2024-02-26T07:33:26;100343.44;;;7.74;100.00
64551;BME280;74341;44.510;-123.270;2024-02-26T07:35:53;100351.44;;;7.76;100.00
64551;BME280;74341;44.510;-123.270;2024-02-26T07:38:19;100340.53;;;7.76;100.00
64551;BME280;74341;44.510;-123.270;2024-02-26T07:40:46;100352.31;;;7.76;100.00
64551;BME280;74341;44.510;-123.270;2024-02-26T07:43:12;100349.59;;;7.76;100.00
64551;BME280;74341;44.510;-123.270;2024-02-26T07:45:39;100354.00;;;7.77;100.00
64551;BME280;74341;44.510;-123.270;2024-02-26T07:48:07;100362.47;;;7.74;100.00
64551;BME280;74341;44.510;-123.270;2024-02-26T07:50:34;100371.00;;;7.71;100.00
64551;BME280;74341;44.510;-123.270;2024-02-26T07:53:00;100374.34;;;7.65;100.00
64551;BME280;74341;44.510;-123.270;2024-02-26T07:55:27;100372.78;;;7.54;100.00
64551;BME280;74341;44.510;-123.270;2024-02-26T07:57:53;100376.66;;;7.43;100.00
64551;BME280;74341;44.510;-123.270;2024-02-26T08:00:20;100369.34;;;7.36;100.00
64551;BME280;74341;44.510;-123.270;2024-02-26T08:02:46;100364.53;;;7.30;100.00
64551;BME280;74341;44.510;-123.270;2024-02-26T08:05:13;100362.31;;;7.25;100.00
64551;BME280;74341;44.510;-123.270;2024-02-26T08:07:39;100362.81;;;7.20;100.00
64551;BME280;74341;44.510;-123.270;2024-02-26T08:10:06;100360.56;;;7.16;100.00
64551;BME280;74341;44.510;-123.270;2024-02-26T08:12:33;100366.19;;;7.14;100.00
64551;BME280;74341;44.510;-123.270;2024-02-26T08:14:59;100367.50;;;7.10;100.00
64551;BME280;74341;44.510;-123.270;2024-02-26T08:17:26;100363.88;;;7.01;100.00
64551;BME280;74341;44.510;-123.270;2024-02-26T08:19:53;100371.66;;;6.96;100.00
64551;BME280;74341;44.510;-123.270;2024-02-26T08:22:19;100366.19;;;6.88;100.00
64551;BME280;74341;44.510;-123.270;2024-02-26T08:24:46;100367.53;;;6.84;100.00
64551;BME280;74341;44.510;-123.270;2024-02-26T08:27:12;100368.16;;;6.78;100.00
64551;BME280;74341;44.510;-123.270;2024-02-26T08:29:39;100368.81;;;6.72;100.00
64551;BME280;74341;44.510;-123.270;2024-02-26T08:32:05;100368.44;;;6.66;100.00
64551;BME280;74341;44.510;-123.270;2024-02-26T08:34:33;100373.50;;;6.61;100.00
64551;BME280;74341;44.510;-123.270;2024-02-26T08:36:59;100367.69;;;6.56;100.00
64551;BME280;74341;44.510;-123.270;2024-02-26T08:39:26;100371.56;;;6.54;100.00
64551;BME280;74341;44.510;-123.270;2024-02-26T08:41:52;100374.06;;;6.47;100.00
64551;BME280;74341;44.510;-123.270;2024-02-26T08:44:18;100381.69;;;6.43;100.00
64551;BME280;74341;44.510;-123.270;2024-02-26T08:46:45;100388.75;;;6.36;100.00
64551;BME280;74341;44.510;-123.270;2024-02-26T08:49:11;100399.75;;;6.35;100.00
64551;BME280;74341;44.510;-123.270;2024-02-26T08:51:44;100391.06;;;6.31;100.00
64551;BME280;74341;44.510;-123.270;2024-02-26T08:54:11;100391.69;;;6.25;100.00
64551;BME280;74341;44.510;-123.270;2024-02-26T08:56:37;100397.59;;;6.20;100.00
64551;BME280;74341;44.510;-123.270;2024-02-26T08:59:04;100390.44;;;6.19;100.00
64551;BME280;74341;44.510;-123.270;2024-02-26T09:01:31;100394.50;;;6.15;100.00
64551;BME280;74341;44.510;-123.270;2024-02-26T09:03:58;100403.25;;;6.09;100.00
64551;BME280;74341;44.510;-123.270;2024-02-26T09:06:25;100401.84;;;6.05;100.00
64551;BME280;74341;44.510;-123.270;2024-02-26T09:08:51;100400.47;;;6.01;100.00
64551;BME280;74341;44.510;-123.270;2024-02-26T09:11:17;100410.63;;;5.99;100.00
64551;BME280;74341;44.510;-123.270;2024-02-26T09:13:44;100396.47;;;5.95;100.00
64551;BME280;74341;44.510;-123.270;2024-02-26T09:16:11;100404.91;;;5.92;100.00
64551;BME280;74341;44.510;-123.270;2024-02-26T09:18:39;100405.91;;;5.91;100.00
64551;BME280;74341;44.510;-123.270;2024-02-26T09:21:05;100408.91;;;5.88;100.00
64551;BME280;74341;44.510;-123.270;2024-02-26T09:23:32;100406.38;;;5.86;100.00
64551;BME280;74341;44.510;-123.270;2024-02-26T09:25:59;100412.97;;;5.84;100.00
64551;BME280;74341;44.510;-123.270;2024-02-26T09:28:25;100418.69;;;5.81;100.00
64551;BME280;74341;44.510;-123.270;2024-02-26T09:30:51;100422.56;;;5.78;100.00
64551;BME280;74341;44.510;-123.270;2024-02-26T09:33:18;100419.16;;;5.76;100.00
64551;BME280;74341;44.510;-123.270;2024-02-26T09:35:44;100432.88;;;5.75;100.00
64551;BME280;74341;44.510;-123.270;2024-02-26T09:38:11;100432.16;;;5.72;100.00
64551;BME280;74341;44.510;-123.270;2024-02-26T09:40:39;100438.59;;;5.71;100.00
64551;BME280;74341;44.510;-123.270;2024-02-26T09:43:05;100434.03;;;5.72;100.00
64551;BME280;74341;44.510;-123.270;2024-02-26T09:45:35;100435.03;;;5.71;100.00
64551;BME280;74341;44.510;-123.270;2024-02-26T09:48:03;100435.88;;;5.71;100.00
64551;BME280;74341;44.510;-123.270;2024-02-26T09:50:30;100437.88;;;5.69;100.00
64551;BME280;74341;44.510;-123.270;2024-02-26T09:52:56;100445.31;;;5.67;100.00
64551;BME280;74341;44.510;-123.270;2024-02-26T09:55:25;100439.34;;;5.64;100.00
64551;BME280;74341;44.510;-123.270;2024-02-26T09:57:52;100442.06;;;5.64;100.00
64551;BME280;74341;44.510;-123.270;2024-02-26T10:00:20;100438.09;;;5.58;100.00
64551;BME280;74341;44.510;-123.270;2024-02-26T10:02:48;100442.28;;;5.52;100.00
64551;BME280;74341;44.510;-123.270;2024-02-26T10:05:18;100448.13;;;5.48;100.00
64551;BME280;74341;44.510;-123.270;2024-02-26T10:07:47;100436.19;;;5.41;100.00
64551;BME280;74341;44.510;-123.270;2024-02-26T10:10:18;100432.63;;;5.40;100.00
64551;BME280;74341;44.510;-123.270;2024-02-26T10:12:45;100434.59;;;5.38;100.00
64551;BME280;74341;44.510;-123.270;2024-02-26T10:15:11;100432.78;;;5.39;100.00
64551;BME280;74341;44.510;-123.270;2024-02-26T10:17:38;100427.78;;;5.34;100.00
64551;BME280;74341;44.510;-123.270;2024-02-26T10:20:15;100436.19;;;5.31;100.00
64551;BME280;74341;44.510;-123.270;2024-02-26T10:22:44;100440.22;;;5.27;100.00
64551;BME280;74341;44.510;-123.270;2024-02-26T10:25:10;100430.41;;;5.26;100.00
64551;BME280;74341;44.510;-123.270;2024-02-26T10:27:37;100435.09;;;5.24;100.00
64551;BME280;74341;44.510;-123.270;2024-02-26T10:30:12;100427.09;;;5.22;100.00
64551;BME280;74341;44.510;-123.270;2024-02-26T10:32:43;100439.13;;;5.20;100.00
64551;BME280;74341;44.510;-123.270;2024-02-26T10:35:10;100436.41;;;5.20;100.00
64551;BME280;74341;44.510;-123.270;2024-02-26T10:37:36;100445.53;;;5.19;100.00
64551;BME280;74341;44.510;-123.270;2024-02-26T10:40:03;100448.22;;;5.19;100.00
64551;BME280;74341;44.510;-123.270;2024-02-26T10:42:30;100430.97;;;5.20;100.00
64551;BME280;74341;44.510;-123.270;2024-02-26T10:44:58;100441.81;;;5.20;100.00
64551;BME280;74341;44.510;-123.270;2024-02-26T10:47:24;100451.25;;;5.16;100.00
64551;BME280;74341;44.510;-123.270;2024-02-26T10:49:50;100456.53;;;5.07;100.00
64551;BME280;74341;44.510;-123.270;2024-02-26T10:52:19;100450.28;;;5.07;100.00
64551;BME280;74341;44.510;-123.270;2024-02-26T10:54:47;100448.69;;;5.04;100.00
64551;BME280;74341;44.510;-123.270;2024-02-26T10:57:16;100446.13;;;5.03;100.00
64551;BME280;74341;44.510;-123.270;2024-02-26T10:59:44;100441.03;;;5.00;100.00
64551;BME280;74341;44.510;-123.270;2024-02-26T11:02:11;100455.84;;;4.95;100.00
64551;BME280;74341;44.510;-123.270;2024-02-26T11:04:39;100470.69;;;4.91;100.00
64551;BME280;74341;44.510;-123.270;2024-02-26T11:07:09;100465.00;;;4.85;100.00
64551;BME280;74341;44.510;-123.270;2024-02-26T11:09:36;100457.19;;;4.82;100.00
64551;BME280;74341;44.510;-123.270;2024-02-26T11:12:09;100458.16;;;4.81;100.00
64551;BME280;74341;44.510;-123.270;2024-02-26T11:14:44;100454.63;;;4.80;100.00
64551;BME280;74341;44.510;-123.270;2024-02-26T11:17:11;100450.47;;;4.76;100.00
64551;BME280;74341;44.510;-123.270;2024-02-26T11:19:41;100458.91;;;4.73;100.00
64551;BME280;74341;44.510;-123.270;2024-02-26T11:22:09;100443.78;;;4.70;100.00
64551;BME280;74341;44.510;-123.270;2024-02-26T11:24:35;100447.38;;;4.71;100.00
64551;BME280;74341;44.510;-123.270;2024-02-26T11:27:07;100456.34;;;4.71;100.00
64551;BME280;74341;44.510;-123.270;2024-02-26T11:29:39;100454.63;;;4.70;100.00
64551;BME280;74341;44.510;-123.270;2024-02-26T11:32:07;100451.75;;;4.72;100.00
64551;BME280;74341;44.510;-123.270;2024-02-26T11:34:34;100450.22;;;4.69;100.00
64551;BME280;74341;44.510;-123.270;2024-02-26T11:37:11;100452.91;;;4.69;100.00
64551;BME280;74341;44.510;-123.270;2024-02-26T11:39:39;100455.63;;;4.69;100.00
64551;BME280;74341;44.510;-123.270;2024-02-26T11:42:07;100461.03;;;4.69;100.00
64551;BME280;74341;44.510;-123.270;2024-02-26T11:44:34;100461.19;;;4.68;100.00
64551;BME280;74341;44.510;-123.270;2024-02-26T11:47:20;100463.91;;;4.68;100.00
64551;BME280;74341;44.510;-123.270;2024-02-26T11:49:47;100470.28;;;4.67;100.00
64551;BME280;74341;44.510;-123.270;2024-02-26T11:52:14;100475.00;;;4.65;100.00
64551;BME280;74341;44.510;-123.270;2024-02-26T12:02:52;100479.84;;;4.61;100.00
64551;BME280;74341;44.510;-123.270;2024-02-26T12:05:27;100502.22;;;4.63;100.00
64551;BME280;74341;44.510;-123.270;2024-02-26T12:10:47;100498.81;;;4.61;100.00
64551;BME280;74341;44.510;-123.270;2024-02-26T12:13:15;100499.50;;;4.63;100.00
64551;BME280;74341;44.510;-123.270;2024-02-26T12:15:42;100504.22;;;4.61;100.00
64551;BME280;74341;44.510;-123.270;2024-02-26T12:18:10;100515.91;;;4.62;100.00
64551;BME280;74341;44.510;-123.270;2024-02-26T12:20:39;100513.19;;;4.62;100.00
64551;BME280;74341;44.510;-123.270;2024-02-26T12:23:06;100517.91;;;4.60;100.00
64551;BME280;74341;44.510;-123.270;2024-02-26T12:25:33;100519.75;;;4.59;100.00
64551;BME280;74341;44.510;-123.270;2024-02-26T12:28:00;100512.75;;;4.56;100.00
64551;BME280;74341;44.510;-123.270;2024-02-26T12:30:26;100511.22;;;4.54;100.00
64551;BME280;74341;44.510;-123.270;2024-02-26T12:32:55;100514.06;;;4.52;100.00